Terminal Aerodrome Forecast
Issued by NWS

Home | Current Version | Previous Version | Text Only | Print | Product List | Glossary Off
Versions: 1 2 3 4 5 6 7 8 9 10 11 12 13 14 15 16 17 18 19 20

000
FTUS41 KCLE 281500 AAB
TAFFDY
TAF AMD
KFDY 281511Z 2815/2912 05005KT P6SM BKN025
     FM281900 06005KT P6SM FEW035 BKN250
     FM282300 VRB03KT P6SM BKN250
     FM290700 10005KT P6SM BKN100=

USA.gov is the U.S. government's official web portal to all federal, state and local government web resources and services.